Nearby METAR Reports

 

EDNY - Friedrichshafen, Germany
Distance from station: ONO 32km
aktuell: 23/07/2024 07:20
stark bewölkt
stark bewölkt
 Wind von varies
Wind: varies 2 km/h
Temperatur: 18°C
Taupunkt: 16°C
Luftfeuchte: 88%
Luftdruck: 1021 hPa
Clouds: stark bewölkt
Visibility: 10 km
Cloud details: teilweise bewölkt 1067 m
stark bewölkt 1280 m
2024/07/23 05:20 EDNY 230520Z VRB01KT 9999 SCT035 BKN042 18/16 Q1021
LSZR - Rheineck/Altenrh, Switzerland
Distance from station: OSO 37km
aktuell: 23/07/2024 07:20
stark bewölkt
stark bewölkt
 Wind von WSW
Wind: WSW 7 km/h
Temperatur: 20°C
Taupunkt: 17°C
Luftfeuchte: 83%
Luftdruck: 1021 hPa
Clouds: stark bewölkt
Visibility: 10 km
Cloud details: stark bewölkt 671 m
stark bewölkt 762 m
stark bewölkt 853 m
2024/07/23 05:20 LSZR 230520Z AUTO 25004KT 210V300 9999 R10/0600U BKN022 BKN025 BKN028 20/17 Q1021
LSMD - Dubendorf, Switzerland
Distance from station: SW 40km
aktuell: 23/07/2024 07:20
geschlossene Wolkendecke
geschlossene Wolkendecke
 Wind von varies
Wind: varies 2 km/h
Temperatur: 19°C
Taupunkt: 15°C
Luftfeuchte: 78%
Luftdruck: 1022 hPa
Clouds: geschlossene Wolkendecke
Visibility: 10 km
Cloud details: stark bewölkt 1433 m
geschlossene Wolkendecke 2377 m
2024/07/23 05:20 LSMD 230520Z VRB01KT 9999 BKN047 OVC078 19/15 Q1022 RMK BLU
 
LSZH - Zurich-Kloten (a, Switzerland
Distance from station: WSW 44km
aktuell: 23/07/2024 07:20
stark bewölkt
stark bewölkt
 Wind von varies
Wind: varies 2 km/h
Temperatur: 18°C
Taupunkt: 15°C
Luftfeuchte: 83%
Luftdruck: 1022 hPa
Clouds: stark bewölkt
Visibility: 10 km
Cloud details: Few Clouds 1494 m
stark bewölkt 1615 m
2024/07/23 05:20 LSZH 230520Z VRB01KT 9999 FEW049 BKN053 18/15 Q1022 NOSIG
LSME - Emmen, Switzerland
Distance from station: SW 82km
aktuell: 23/07/2024 07:20
geschlossene Wolkendecke
geschlossene Wolkendecke
 Wind von calm
Wind: Windstill
Temperatur: 19°C
Taupunkt: 18°C
Luftfeuchte: 94%
Luftdruck: 1022 hPa
Clouds: geschlossene Wolkendecke
Visibility: 10 km
Cloud details: geschlossene Wolkendecke 1402 m
2024/07/23 05:20 LSME 230520Z AUTO 00000KT 9999NDV OVC046 19/18 Q1022 RMK
LSZC - Buochs, Switzerland
Distance from station: SW 89km
aktuell: 23/07/2024 07:20
geschlossene Wolkendecke
geschlossene Wolkendecke
 Wind von SW
Wind: SW 7 km/h
Temperatur: 18°C
Taupunkt: 17°C
Luftfeuchte: 94%
Luftdruck: 1022 hPa
Clouds: geschlossene Wolkendecke
Visibility: 10 km
Cloud details: geschlossene Wolkendecke 1280 m
2024/07/23 05:20 LSZC 230520Z AUTO 23004KT 200V290 9999 OVC042 18/17 Q1022
 
ETHL - Laupheim (ger-Ar, Germany
Distance from station: NO 92km
aktuell: 23/07/2024 07:20
stark bewölkt
stark bewölkt
 Wind von WSW
Wind: WSW 6 km/h
Temperatur: 17°C
Taupunkt: 13°C
Luftfeuchte: 77%
Luftdruck: 1021 hPa
Clouds: stark bewölkt
Visibility: 10 km
Cloud details: Few Clouds 1250 m
stark bewölkt 8534 m
2024/07/23 05:20 ETHL 230520Z 24003KT 9999 FEW041 BKN280 17/13 Q1021 BLU+BLU+
EDJA - Memmingen Allgau, Germany
Distance from station: ONO 95km
aktuell: 23/07/2024 07:20
geschlossene Wolkendecke
geschlossene Wolkendecke
 Wind von SSW
Wind: SSW 4 km/h
Temperatur: 17°C
Taupunkt: 17°C
Luftfeuchte: 100%
Luftdruck: 1022 hPa
Clouds: geschlossene Wolkendecke
Visibility: 10 km
Cloud details: Few Clouds 945 m
geschlossene Wolkendecke 1463 m
2024/07/23 05:20 EDJA 230520Z 20002KT 9999 FEW031 OVC048 17/17 Q1022
LSMA - Alpnach, Switzerland
Distance from station: SW 95km
aktuell: 23/07/2024 07:20
sehr leichter Niederschlag, geschlossene Wolkendecke
sehr leichter Niederschlag, geschlossene Wolkendecke
 Wind von S
Wind: S 6 km/h
Temperatur: 19°C
Taupunkt: 17°C
Luftfeuchte: 88%
Luftdruck: 1022 hPa
Zusammenfassung: sehr leichter Niederschlag
Clouds: geschlossene Wolkendecke
Visibility: 10 km
Cloud details: Few Clouds 1036 m
geschlossene Wolkendecke 1372 m
2024/07/23 05:20 LSMA 230520Z AUTO 19003KT 9999NDV -RA FEW034 OVC045 19/17 Q1022 RMK